createdAt,value
2022-10-09T00:01:14.417Z,100.00
2022-10-09T00:03:43.821Z,100.00
2022-10-09T00:06:14.542Z,100.00
2022-10-09T00:08:43.761Z,100.00
2022-10-09T00:11:15.726Z,100.00
2022-10-09T00:13:43.689Z,100.00
2022-10-09T00:16:13.355Z,100.00
2022-10-09T00:18:41.469Z,100.00
2022-10-09T00:21:18.153Z,100.00
2022-10-09T00:23:46.111Z,100.00
2022-10-09T00:26:15.524Z,100.00
2022-10-09T00:28:43.667Z,100.00
2022-10-09T00:31:12.833Z,100.00
2022-10-09T00:33:41.258Z,100.00
2022-10-09T00:36:15.218Z,100.00
2022-10-09T00:38:43.372Z,100.00
2022-10-09T00:41:16.725Z,100.00
2022-10-09T00:43:47.900Z,100.00
2022-10-09T00:46:27.056Z,100.00
2022-10-09T00:49:01.310Z,100.00
2022-10-09T00:51:30.063Z,100.00
2022-10-09T00:53:58.153Z,100.00
2022-10-09T00:56:27.611Z,100.00
2022-10-09T00:58:58.111Z,100.00
2022-10-09T01:01:26.277Z,100.00
2022-10-09T01:03:54.226Z,100.00
2022-10-09T01:06:27.973Z,100.00
2022-10-09T01:09:01.766Z,100.00
2022-10-09T01:11:37.794Z,100.00
2022-10-09T01:14:12.260Z,100.00
2022-10-09T01:16:44.654Z,100.00
2022-10-09T01:19:22.592Z,100.00
2022-10-09T01:21:56.728Z,100.00
2022-10-09T01:24:29.163Z,100.00
2022-10-09T01:27:04.526Z,100.00
2022-10-09T01:29:35.785Z,100.00
2022-10-09T01:32:04.898Z,100.00
2022-10-09T01:34:33.813Z,100.00
2022-10-09T01:37:02.185Z,100.00
2022-10-09T01:39:31.604Z,100.00
2022-10-09T01:42:00.948Z,100.00
2022-10-09T01:44:30.734Z,100.00
2022-10-09T01:46:58.930Z,100.00
2022-10-09T01:49:41.063Z,100.00
2022-10-09T01:52:16.970Z,100.00
2022-10-09T01:54:52.644Z,100.00
2022-10-09T01:57:28.245Z,100.00
2022-10-09T01:59:57.467Z,100.00
2022-10-09T02:02:25.838Z,100.00
2022-10-09T02:04:53.955Z,100.00
2022-10-09T02:07:22.398Z,100.00
2022-10-09T02:09:50.442Z,100.00
2022-10-09T02:12:21.637Z,100.00
2022-10-09T02:14:50.160Z,100.00
2022-10-09T02:17:20.057Z,100.00
2022-10-09T02:19:50.398Z,100.00
2022-10-09T02:22:20.437Z,100.00
2022-10-09T02:24:48.746Z,100.00
2022-10-09T02:27:17.192Z,100.00
2022-10-09T02:29:47.431Z,100.00
2022-10-09T02:32:15.456Z,100.00
2022-10-09T02:34:43.550Z,100.00
2022-10-09T02:37:11.587Z,100.00
2022-10-09T02:39:39.529Z,100.00
2022-10-09T02:42:07.479Z,100.00
2022-10-09T02:44:35.390Z,100.00
2022-10-09T02:47:04.864Z,100.00
2022-10-09T02:49:32.778Z,100.00
2022-10-09T02:52:00.810Z,100.00
2022-10-09T02:54:28.726Z,100.00
2022-10-09T02:56:56.642Z,100.00
2022-10-09T02:59:24.550Z,100.00
2022-10-09T03:01:52.722Z,100.00
2022-10-09T03:04:22.123Z,100.00
2022-10-09T03:06:49.991Z,100.00
2022-10-09T03:09:17.946Z,100.00
2022-10-09T03:11:45.814Z,100.00
2022-10-09T03:14:13.868Z,100.00
2022-10-09T03:16:41.769Z,100.00
2022-10-09T03:19:09.646Z,100.00
2022-10-09T03:21:39.014Z,100.00
2022-10-09T03:24:07.010Z,100.00
2022-10-09T03:26:34.948Z,100.00
2022-10-09T03:29:02.867Z,100.00
2022-10-09T03:31:51.063Z,100.00
2022-10-09T03:34:19.055Z,100.00
2022-10-09T03:36:48.352Z,100.00
2022-10-09T03:39:16.334Z,100.00
2022-10-09T03:41:44.236Z,100.00
2022-10-09T03:44:12.135Z,100.00
2022-10-09T03:46:40.116Z,100.00
2022-10-09T03:49:08.105Z,100.00
2022-10-09T03:51:36.087Z,100.00
2022-10-09T03:54:06.078Z,100.00
2022-10-09T03:56:33.954Z,100.00
2022-10-09T03:59:01.898Z,100.00
2022-10-09T04:01:29.873Z,100.00
2022-10-09T04:03:57.730Z,100.00
2022-10-09T04:06:25.933Z,100.00
2022-10-09T04:08:53.927Z,100.00
2022-10-09T04:11:23.714Z,100.00
2022-10-09T04:13:51.913Z,100.00
2022-10-09T04:16:19.845Z,100.00
2022-10-09T04:18:48.174Z,100.00
2022-10-09T04:21:16.133Z,100.00
2022-10-09T04:23:44.084Z,100.00
2022-10-09T04:26:13.211Z,100.00
2022-10-09T04:28:42.565Z,100.00
2022-10-09T04:31:10.765Z,100.00
2022-10-09T04:33:38.762Z,100.00
2022-10-09T04:36:07.024Z,100.00
2022-10-09T04:38:34.965Z,100.00
2022-10-09T04:41:04.982Z,100.00
2022-10-09T04:43:33.294Z,100.00
2022-10-09T04:46:05.623Z,100.00
2022-10-09T04:48:33.677Z,100.00
2022-10-09T04:51:04.959Z,100.00
2022-10-09T04:53:32.981Z,100.00
2022-10-09T04:56:03.386Z,100.00
2022-10-09T04:58:31.734Z,100.00
2022-10-09T05:00:59.855Z,100.00
2022-10-09T05:03:29.461Z,100.00
2022-10-09T05:06:02.193Z,100.00
2022-10-09T05:08:31.688Z,100.00
2022-10-09T05:11:02.770Z,100.00
2022-10-09T05:13:31.756Z,100.00
2022-10-09T05:16:02.936Z,100.00
2022-10-09T05:18:32.430Z,100.00
2022-10-09T05:21:00.377Z,100.00
2022-10-09T05:23:28.721Z,100.00
2022-10-09T05:25:57.049Z,100.00
2022-10-09T05:28:25.535Z,100.00
2022-10-09T05:30:53.501Z,100.00
2022-10-09T05:33:21.776Z,100.00
2022-10-09T05:35:54.907Z,100.00
2022-10-09T05:38:23.832Z,100.00
2022-10-09T05:40:52.875Z,100.00
2022-10-09T05:43:21.257Z,100.00
2022-10-09T05:45:49.184Z,100.00
2022-10-09T05:48:17.162Z,100.00
2022-10-09T05:50:45.159Z,100.00
2022-10-09T05:53:14.595Z,100.00
2022-10-09T05:55:42.526Z,100.00
2022-10-09T05:58:10.395Z,100.00
2022-10-09T06:00:38.309Z,100.00
2022-10-09T06:03:06.226Z,100.00
2022-10-09T06:05:34.101Z,100.00
2022-10-09T06:08:02.006Z,100.00
2022-10-09T06:10:32.569Z,100.00
2022-10-09T06:13:00.626Z,100.00
2022-10-09T06:15:28.617Z,100.00
2022-10-09T06:17:56.485Z,100.00
2022-10-09T06:20:24.417Z,100.00
2022-10-09T06:22:52.894Z,100.00
2022-10-09T06:25:20.811Z,100.00
2022-10-09T06:27:50.053Z,100.00
2022-10-09T06:30:17.997Z,100.00
2022-10-09T06:32:45.925Z,100.00
2022-10-09T06:35:14.006Z,100.00
2022-10-09T06:37:41.993Z,100.00
2022-10-09T06:40:10.750Z,100.00
2022-10-09T06:42:38.629Z,100.00
2022-10-09T06:45:09.429Z,100.00
2022-10-09T06:47:37.402Z,100.00
2022-10-09T06:50:05.961Z,100.00
2022-10-09T06:52:33.894Z,100.00
2022-10-09T06:55:01.786Z,100.00
2022-10-09T06:57:29.705Z,100.00
2022-10-09T06:59:57.639Z,100.00
2022-10-09T07:02:27.017Z,100.00
2022-10-09T07:04:54.941Z,100.00
2022-10-09T07:07:22.857Z,100.00
2022-10-09T07:09:52.785Z,100.00
2022-10-09T07:12:20.733Z,100.00
2022-10-09T07:14:48.654Z,100.00
2022-10-09T07:17:16.618Z,100.00
2022-10-09T07:19:46.071Z,100.00
2022-10-09T07:22:14.153Z,100.00
2022-10-09T07:24:42.017Z,100.00
2022-10-09T07:27:09.935Z,100.00
2022-10-09T07:29:37.930Z,100.00
2022-10-09T07:32:10.254Z,100.00
2022-10-09T07:34:38.562Z,100.00
2022-10-09T07:37:07.999Z,100.00
2022-10-09T07:39:36.421Z,100.00
2022-10-09T07:42:04.914Z,100.00
2022-10-09T07:44:32.853Z,100.00
2022-10-09T07:47:00.764Z,100.00
2022-10-09T07:49:28.752Z,100.00
2022-10-09T07:51:56.638Z,100.00
2022-10-09T07:54:26.087Z,100.00
2022-10-09T07:56:53.958Z,100.00
2022-10-09T07:59:21.866Z,100.00
2022-10-09T08:01:49.862Z,100.00
2022-10-09T08:04:17.838Z,100.00
2022-10-09T08:06:45.903Z,100.00
2022-10-09T08:09:14.132Z,100.00
2022-10-09T08:11:44.609Z,100.00
2022-10-09T08:14:19.274Z,100.00
2022-10-09T08:16:47.895Z,100.00
2022-10-09T08:19:15.875Z,100.00
2022-10-09T08:21:43.836Z,100.00
2022-10-09T08:24:12.977Z,100.00
2022-10-09T08:26:40.976Z,100.00
2022-10-09T08:29:13.812Z,100.00
2022-10-09T08:31:41.853Z,100.00
2022-10-09T08:34:10.588Z,100.00
2022-10-09T08:36:38.499Z,100.00
2022-10-09T08:39:06.469Z,100.00
2022-10-09T08:41:45.039Z,100.00
2022-10-09T08:44:19.327Z,100.00
2022-10-09T08:47:05.496Z,100.00
2022-10-09T08:49:45.344Z,100.00
2022-10-09T08:52:22.784Z,100.00
2022-10-09T08:54:51.232Z,100.00
2022-10-09T08:57:19.165Z,100.00
2022-10-09T08:59:48.476Z,100.00
2022-10-09T09:02:34.100Z,100.00
2022-10-09T09:05:16.545Z,100.00
2022-10-09T09:07:51.562Z,100.00
2022-10-09T09:10:26.964Z,100.00
2022-10-09T09:12:58.028Z,100.00
2022-10-09T09:15:36.370Z,100.00
2022-10-09T09:18:15.762Z,100.00
2022-10-09T09:20:50.133Z,100.00
2022-10-09T09:23:18.170Z,100.00
2022-10-09T09:25:46.905Z,100.00
2022-10-09T09:28:18.135Z,100.00
2022-10-09T09:30:51.819Z,100.00
2022-10-09T09:33:23.622Z,100.00
2022-10-09T09:35:56.413Z,100.00
2022-10-09T09:38:24.487Z,100.00
2022-10-09T09:40:52.380Z,100.00
2022-10-09T09:43:21.866Z,100.00
2022-10-09T09:45:54.238Z,100.00
2022-10-09T09:48:27.975Z,100.00
2022-10-09T09:51:16.308Z,100.00
2022-10-09T09:53:45.540Z,100.00
2022-10-09T09:56:13.496Z,100.00
2022-10-09T09:58:47.017Z,100.00
2022-10-09T10:01:27.319Z,100.00
2022-10-09T10:03:57.626Z,100.00
2022-10-09T10:06:26.675Z,100.00
2022-10-09T10:09:05.239Z,100.00
2022-10-09T10:11:34.997Z,100.00
2022-10-09T10:14:08.253Z,100.00
2022-10-09T10:16:39.040Z,100.00
2022-10-09T10:19:07.387Z,100.00
2022-10-09T10:21:41.905Z,100.00
2022-10-09T10:24:14.662Z,100.00
2022-10-09T10:26:44.672Z,100.00
2022-10-09T10:29:15.337Z,100.00
2022-10-09T10:31:51.377Z,100.00
2022-10-09T10:34:22.571Z,100.00
2022-10-09T10:36:53.752Z,100.00
2022-10-09T10:39:26.178Z,100.00
2022-10-09T10:41:57.212Z,100.00
2022-10-09T10:44:30.569Z,100.00
2022-10-09T10:47:05.519Z,100.00
2022-10-09T10:49:34.151Z,100.00
2022-10-09T10:52:13.373Z,100.00
2022-10-09T10:54:42.294Z,100.00
2022-10-09T10:57:16.849Z,100.00
2022-10-09T10:59:54.550Z,100.00
2022-10-09T11:02:52.503Z,100.00
2022-10-09T11:05:29.235Z,100.00
2022-10-09T11:08:13.644Z,100.00
2022-10-09T11:10:47.725Z,100.00
2022-10-09T11:13:20.646Z,100.00
2022-10-09T11:15:56.344Z,100.00
2022-10-09T11:18:35.361Z,100.00
2022-10-09T11:21:20.555Z,100.00
2022-10-09T11:23:59.003Z,100.00
2022-10-09T11:26:32.318Z,100.00
2022-10-09T11:29:03.093Z,100.00
2022-10-09T11:31:34.477Z,100.00
2022-10-09T11:34:06.966Z,100.00
2022-10-09T11:36:37.199Z,100.00
2022-10-09T11:39:06.909Z,100.00
2022-10-09T11:41:36.708Z,100.00
2022-10-09T11:44:26.704Z,95.69
2022-10-09T11:47:01.922Z,100.00
2022-10-09T11:49:38.067Z,98.42
2022-10-09T11:52:12.270Z,98.25
2022-10-09T11:54:41.010Z,100.00
2022-10-09T11:57:14.337Z,100.00
2022-10-09T11:59:43.342Z,97.57
2022-10-09T12:02:25.622Z,97.91
2022-10-09T12:04:55.859Z,100.00
2022-10-09T12:07:32.639Z,100.00
2022-10-09T12:10:05.311Z,100.00
2022-10-09T12:12:34.901Z,100.00
2022-10-09T12:15:13.198Z,100.00
2022-10-09T12:17:50.049Z,93.63
2022-10-09T12:20:21.605Z,97.48
2022-10-09T12:23:14.237Z,99.18
2022-10-09T12:25:45.813Z,100.00
2022-10-09T12:28:21.155Z,100.00
2022-10-09T12:30:50.107Z,93.79
2022-10-09T12:33:23.965Z,91.35
2022-10-09T12:36:02.383Z,92.97
2022-10-09T12:38:32.447Z,96.14
2022-10-09T12:41:02.586Z,98.12
2022-10-09T12:43:31.382Z,95.56
2022-10-09T12:46:00.021Z,94.81
2022-10-09T12:48:30.075Z,95.23
2022-10-09T12:50:59.384Z,96.69
2022-10-09T12:53:28.261Z,87.88
2022-10-09T12:56:00.093Z,88.55
2022-10-09T12:58:30.142Z,89.66
2022-10-09T13:01:00.393Z,94.61
2022-10-09T13:03:35.859Z,94.71
2022-10-09T13:06:06.876Z,92.51
2022-10-09T13:08:37.126Z,86.65
2022-10-09T13:11:12.113Z,89.83
2022-10-09T13:13:40.875Z,98.30
2022-10-09T13:16:10.784Z,94.57
2022-10-09T13:18:39.451Z,81.23
2022-10-09T13:21:23.220Z,84.24
2022-10-09T13:23:51.440Z,84.35
2022-10-09T13:26:25.162Z,83.22
2022-10-09T13:28:53.136Z,80.87
2022-10-09T13:31:21.207Z,89.06
2022-10-09T13:33:49.480Z,81.27
2022-10-09T13:36:19.916Z,84.37
2022-10-09T13:38:48.778Z,81.57
2022-10-09T13:41:20.533Z,80.70
2022-10-09T13:43:49.155Z,80.23
2022-10-09T13:46:17.337Z,78.81
2022-10-09T13:48:45.377Z,81.04
2022-10-09T13:51:13.771Z,80.53
2022-10-09T13:53:43.052Z,88.35
2022-10-09T13:56:11.069Z,74.45
2022-10-09T13:58:39.010Z,74.86
2022-10-09T14:01:07.220Z,75.58
2022-10-09T14:03:35.126Z,76.64
2022-10-09T14:06:04.334Z,74.66
2022-10-09T14:08:32.281Z,74.12
2022-10-09T14:11:02.469Z,84.78
2022-10-09T14:13:30.531Z,86.18
2022-10-09T14:15:58.486Z,73.96
2022-10-09T14:18:26.390Z,73.90
2022-10-09T14:20:54.354Z,75.40
2022-10-09T14:23:22.269Z,77.07
2022-10-09T14:25:50.193Z,82.45
2022-10-09T14:28:19.533Z,84.12
2022-10-09T14:30:47.463Z,84.34
2022-10-09T14:33:15.368Z,85.17
2022-10-09T14:35:43.329Z,91.96
2022-10-09T14:38:11.189Z,78.96
2022-10-09T14:40:43.195Z,75.94
2022-10-09T14:43:11.321Z,78.17
2022-10-09T14:45:40.606Z,81.31
2022-10-09T14:48:08.497Z,79.89
2022-10-09T14:50:37.440Z,79.14
2022-10-09T14:53:05.325Z,85.14
2022-10-09T14:55:35.438Z,83.10
2022-10-09T14:58:03.353Z,77.76
2022-10-09T15:00:31.292Z,82.13
2022-10-09T15:03:00.595Z,74.21
2022-10-09T15:05:28.473Z,86.02
2022-10-09T15:07:56.401Z,78.97
2022-10-09T15:10:24.290Z,88.36
2022-10-09T15:12:52.207Z,79.58
2022-10-09T15:15:20.153Z,77.70
2022-10-09T15:17:48.366Z,80.86
2022-10-09T15:20:17.970Z,80.59
2022-10-09T15:22:45.989Z,90.97
2022-10-09T15:25:15.707Z,89.90
2022-10-09T15:27:43.606Z,87.09
2022-10-09T15:30:12.701Z,98.56
2022-10-09T15:32:40.636Z,89.00
2022-10-09T15:35:09.631Z,87.17
2022-10-09T15:37:38.946Z,88.50
2022-10-09T15:40:07.802Z,90.69
2022-10-09T15:42:37.063Z,90.65
2022-10-09T15:45:05.746Z,93.48
2022-10-09T15:47:50.546Z,97.83
2022-10-09T15:50:19.215Z,94.96
2022-10-09T15:52:48.785Z,100.00
2022-10-09T15:55:17.001Z,100.00
2022-10-09T15:57:44.913Z,100.00
2022-10-09T16:00:13.709Z,100.00
2022-10-09T16:02:41.660Z,100.00
2022-10-09T16:05:10.347Z,100.00
2022-10-09T16:07:38.240Z,100.00
2022-10-09T16:10:08.381Z,100.00
2022-10-09T16:12:36.246Z,100.00
2022-10-09T16:15:04.140Z,100.00
2022-10-09T16:17:32.042Z,100.00
2022-10-09T16:20:00.240Z,100.00
2022-10-09T16:22:28.126Z,100.00
2022-10-09T16:24:55.990Z,100.00
2022-10-09T16:27:25.388Z,100.00
2022-10-09T16:29:53.453Z,100.00
2022-10-09T16:32:21.357Z,100.00
2022-10-09T16:34:50.401Z,100.00
2022-10-09T16:37:18.319Z,100.00
2022-10-09T16:39:46.394Z,100.00
2022-10-09T16:42:14.638Z,100.00
2022-10-09T16:44:43.950Z,100.00
2022-10-09T16:47:13.136Z,100.00
2022-10-09T16:49:41.080Z,100.00
2022-10-09T16:52:08.947Z,100.00
2022-10-09T16:54:36.822Z,100.00
2022-10-09T16:57:05.032Z,100.00
2022-10-09T16:59:32.899Z,100.00
2022-10-09T17:02:03.629Z,100.00
2022-10-09T17:04:31.609Z,100.00
2022-10-09T17:06:59.671Z,100.00
2022-10-09T17:09:29.516Z,100.00
2022-10-09T17:11:58.153Z,100.00
2022-10-09T17:14:26.100Z,100.00
2022-10-09T17:16:54.111Z,100.00
2022-10-09T17:19:23.389Z,100.00
2022-10-09T17:21:51.458Z,100.00
2022-10-09T17:24:19.348Z,100.00
2022-10-09T17:26:47.396Z,100.00
2022-10-09T17:29:15.771Z,100.00
2022-10-09T17:31:43.710Z,100.00
2022-10-09T17:34:12.930Z,100.00
2022-10-09T17:36:43.301Z,100.00
2022-10-09T17:39:14.134Z,100.00
2022-10-09T17:41:42.109Z,100.00
2022-10-09T17:44:11.175Z,100.00
2022-10-09T17:46:39.166Z,100.00
2022-10-09T17:49:07.068Z,100.00
2022-10-09T17:51:36.884Z,100.00
2022-10-09T17:54:10.970Z,100.00
2022-10-09T17:56:40.508Z,100.00
2022-10-09T17:59:08.529Z,100.00
2022-10-09T18:01:36.562Z,100.00
2022-10-09T18:04:04.653Z,100.00
2022-10-09T18:06:33.447Z,100.00
2022-10-09T18:09:02.142Z,100.00
2022-10-09T18:11:31.629Z,100.00
2022-10-09T18:13:59.542Z,100.00
2022-10-09T18:16:35.835Z,100.00
2022-10-09T18:19:05.650Z,100.00
2022-10-09T18:21:34.388Z,100.00
2022-10-09T18:24:02.419Z,100.00
2022-10-09T18:26:31.678Z,100.00
2022-10-09T18:28:59.763Z,100.00
2022-10-09T18:31:27.978Z,100.00
2022-10-09T18:33:55.882Z,100.00
2022-10-09T18:36:25.802Z,100.00
2022-10-09T18:38:55.900Z,100.00
2022-10-09T18:41:24.367Z,100.00
2022-10-09T18:43:54.503Z,100.00
2022-10-09T18:46:25.667Z,100.00
2022-10-09T18:48:54.161Z,100.00
2022-10-09T18:51:23.838Z,100.00
2022-10-09T18:53:53.660Z,100.00
2022-10-09T18:56:22.278Z,100.00
2022-10-09T18:58:51.053Z,100.00
2022-10-09T19:01:20.605Z,100.00
2022-10-09T19:03:50.190Z,100.00
2022-10-09T19:06:18.555Z,100.00
2022-10-09T19:08:47.373Z,100.00
2022-10-09T19:11:15.370Z,100.00
2022-10-09T19:13:43.721Z,100.00
2022-10-09T19:16:11.802Z,100.00
2022-10-09T19:18:41.191Z,100.00
2022-10-09T19:21:13.701Z,100.00
2022-10-09T19:23:41.873Z,100.00
2022-10-09T19:26:09.801Z,100.00
2022-10-09T19:28:38.725Z,100.00
2022-10-09T19:31:07.269Z,100.00
2022-10-09T19:33:35.305Z,100.00
2022-10-09T19:36:05.117Z,100.00
2022-10-09T19:38:33.373Z,100.00
2022-10-09T19:41:04.652Z,100.00
2022-10-09T19:43:32.972Z,100.00
2022-10-09T19:46:04.782Z,100.00
2022-10-09T19:48:32.662Z,100.00
2022-10-09T19:51:01.509Z,100.00
2022-10-09T19:53:30.834Z,100.00
2022-10-09T19:55:58.706Z,100.00
2022-10-09T19:58:26.637Z,100.00
2022-10-09T20:00:54.571Z,100.00
2022-10-09T20:03:22.515Z,100.00
2022-10-09T20:05:50.425Z,100.00
2022-10-09T20:08:18.295Z,100.00
2022-10-09T20:10:47.680Z,100.00
2022-10-09T20:13:15.578Z,100.00
2022-10-09T20:15:43.773Z,100.00
2022-10-09T20:18:11.676Z,100.00
2022-10-09T20:20:40.437Z,100.00
2022-10-09T20:23:08.340Z,100.00
2022-10-09T20:25:36.402Z,100.00
2022-10-09T20:28:05.777Z,100.00
2022-10-09T20:30:33.705Z,100.00
2022-10-09T20:33:02.293Z,100.00
2022-10-09T20:35:30.286Z,100.00
2022-10-09T20:37:59.216Z,100.00
2022-10-09T20:40:27.782Z,100.00
2022-10-09T20:42:55.677Z,100.00
2022-10-09T20:45:25.052Z,100.00
2022-10-09T20:47:52.982Z,100.00
2022-10-09T20:50:21.068Z,100.00
2022-10-09T20:52:49.154Z,100.00
2022-10-09T20:55:17.428Z,100.00
2022-10-09T20:57:45.339Z,100.00
2022-10-09T21:00:14.260Z,100.00
2022-10-09T21:02:43.542Z,100.00
2022-10-09T21:05:11.429Z,100.00
2022-10-09T21:07:39.397Z,100.00
2022-10-09T21:10:08.126Z,100.00
2022-10-09T21:12:36.033Z,100.00
2022-10-09T21:15:04.057Z,100.00
2022-10-09T21:17:32.107Z,100.00
2022-10-09T21:20:01.796Z,100.00
2022-10-09T21:22:29.670Z,100.00
2022-10-09T21:24:57.557Z,100.00
2022-10-09T21:27:25.442Z,100.00
2022-10-09T21:29:53.365Z,100.00
2022-10-09T21:32:21.330Z,100.00
2022-10-09T21:34:50.646Z,100.00
2022-10-09T21:37:21.919Z,100.00
2022-10-09T21:39:50.454Z,100.00
2022-10-09T21:42:18.343Z,100.00
2022-10-09T21:44:46.245Z,100.00
2022-10-09T21:47:18.043Z,100.00
2022-10-09T21:49:45.933Z,100.00
2022-10-09T21:52:13.852Z,100.00
2022-10-09T21:54:43.152Z,100.00
2022-10-09T21:57:11.178Z,100.00
2022-10-09T21:59:39.083Z,100.00
2022-10-09T22:02:06.972Z,100.00
2022-10-09T22:04:35.048Z,100.00
2022-10-09T22:07:02.962Z,100.00
2022-10-09T22:09:31.011Z,100.00
2022-10-09T22:12:00.375Z,100.00
2022-10-09T22:14:28.337Z,100.00
2022-10-09T22:16:56.263Z,100.00
2022-10-09T22:19:24.133Z,100.00
2022-10-09T22:21:52.026Z,100.00
2022-10-09T22:24:20.021Z,100.00
2022-10-09T22:26:48.045Z,100.00
2022-10-09T22:29:17.350Z,100.00
2022-10-09T22:31:45.273Z,100.00
2022-10-09T22:34:13.333Z,100.00
2022-10-09T22:36:41.408Z,100.00
2022-10-09T22:39:09.599Z,100.00
2022-10-09T22:41:37.521Z,100.00
2022-10-09T22:44:07.305Z,100.00
2022-10-09T22:46:38.060Z,100.00
2022-10-09T22:49:06.564Z,100.00
2022-10-09T22:51:34.895Z,100.00
2022-10-09T22:54:02.830Z,100.00
2022-10-09T22:56:33.868Z,100.00
2022-10-09T22:59:01.766Z,100.00
2022-10-09T23:01:32.578Z,100.00
2022-10-09T23:04:04.685Z,100.00
2022-10-09T23:06:32.740Z,100.00
2022-10-09T23:09:01.346Z,100.00
2022-10-09T23:11:29.315Z,100.00
2022-10-09T23:13:58.372Z,100.00
2022-10-09T23:16:27.194Z,100.00
2022-10-09T23:18:57.500Z,100.00
2022-10-09T23:21:27.198Z,100.00
2022-10-09T23:23:56.573Z,100.00
2022-10-09T23:26:26.620Z,100.00
2022-10-09T23:28:56.326Z,100.00
2022-10-09T23:31:24.738Z,100.00
2022-10-09T23:33:52.677Z,100.00
2022-10-09T23:36:22.841Z,100.00
2022-10-09T23:38:52.531Z,100.00
2022-10-09T23:41:23.358Z,100.00
2022-10-09T23:43:51.537Z,100.00
2022-10-09T23:46:22.264Z,100.00
2022-10-09T23:48:50.986Z,100.00
2022-10-09T23:51:19.578Z,100.00
2022-10-09T23:53:47.884Z,100.00
2022-10-09T23:56:21.763Z,100.00
2022-10-09T23:58:49.837Z,100.00
